createdAt,value
2019-01-21T00:01:49.449Z,-5.10
2019-01-21T00:04:19.321Z,-5.20
2019-01-21T00:06:49.194Z,-5.30
2019-01-21T00:09:19.123Z,-5.50
2019-01-21T00:11:49.143Z,-5.40
2019-01-21T00:14:19.052Z,-5.20
2019-01-21T00:16:49.417Z,-5.20
2019-01-21T00:19:19.368Z,-5.20
2019-01-21T00:21:49.311Z,-5.10
2019-01-21T00:24:19.177Z,-5.00
2019-01-21T00:26:49.131Z,-5.00
2019-01-21T00:29:19.172Z,-5.10
2019-01-21T00:31:49.027Z,-5.10
2019-01-21T00:34:19.069Z,-5.00
2019-01-21T00:36:48.917Z,-4.80
2019-01-21T00:39:18.841Z,-5.20
2019-01-21T00:41:48.789Z,-5.30
2019-01-21T00:44:18.656Z,-5.20
2019-01-21T00:46:48.594Z,-5.10
2019-01-21T00:49:18.490Z,-4.90
2019-01-21T00:51:48.446Z,-5.30
2019-01-21T00:54:18.301Z,-5.30
2019-01-21T00:56:48.159Z,-5.60
2019-01-21T00:59:18.161Z,-5.60
2019-01-21T01:01:48.300Z,-5.40
2019-01-21T01:04:18.340Z,-4.90
2019-01-21T01:06:48.235Z,-5.20
2019-01-21T01:09:18.168Z,-5.20
2019-01-21T01:11:48.049Z,-5.30
2019-01-21T01:14:17.954Z,-5.40
2019-01-21T01:16:47.938Z,-5.40
2019-01-21T01:19:17.780Z,-5.10
2019-01-21T01:21:47.761Z,-5.10
2019-01-21T01:24:17.752Z,-5.00
2019-01-21T01:26:47.735Z,-5.00
2019-01-21T01:29:17.678Z,-4.80
2019-01-21T01:31:47.744Z,-4.70
2019-01-21T01:34:17.630Z,-4.90
2019-01-21T01:36:47.494Z,-4.80
2019-01-21T01:39:17.359Z,-4.90
2019-01-21T01:41:47.248Z,-5.10
2019-01-21T01:44:17.169Z,-5.20
2019-01-21T01:46:47.463Z,-4.80
2019-01-21T01:49:17.394Z,-4.80
2019-01-21T01:51:47.357Z,-4.70
2019-01-21T01:54:17.288Z,-4.80
2019-01-21T01:56:47.159Z,-4.90
2019-01-21T01:59:17.006Z,-5.30
2019-01-21T02:01:46.893Z,-5.20
2019-01-21T02:04:16.871Z,-5.00
2019-01-21T02:06:46.843Z,-5.10
2019-01-21T02:09:16.703Z,-5.20
2019-01-21T02:11:46.631Z,-5.30
2019-01-21T02:14:16.498Z,-5.10
2019-01-21T02:16:46.462Z,-5.20
2019-01-21T02:19:16.321Z,-5.20
2019-01-21T02:21:46.209Z,-5.00
2019-01-21T02:24:16.580Z,-4.90
2019-01-21T02:26:55.493Z,-5.10
2019-01-21T02:29:36.675Z,-5.10
2019-01-21T02:32:23.123Z,-5.20
2019-01-21T02:35:28.151Z,-5.10
2019-01-21T02:38:31.255Z,-5.30
2019-01-21T02:41:32.456Z,-5.40
2019-01-21T02:44:13.890Z,-5.20
2019-01-21T02:47:05.920Z,-5.10
2019-01-21T02:50:04.084Z,-5.00
2019-01-21T02:53:36.665Z,-5.00
2019-01-21T02:56:23.010Z,-5.10
2019-01-21T02:59:26.554Z,-5.20
2019-01-21T03:02:52.916Z,-5.00
2019-01-21T03:05:43.972Z,-5.10
2019-01-21T03:08:56.980Z,-5.20
2019-01-21T03:12:10.368Z,-5.00
2019-01-21T03:15:10.635Z,-5.10
2019-01-21T03:18:15.428Z,-5.40
2019-01-21T03:21:32.762Z,-5.50
2019-01-21T03:24:39.953Z,-5.60
2019-01-21T03:28:02.336Z,-5.60
2019-01-21T03:31:17.360Z,-5.40
2019-01-21T03:34:21.324Z,-5.10
2019-01-21T03:37:25.139Z,-5.20
2019-01-21T03:40:38.416Z,-5.40
2019-01-21T03:43:46.644Z,-5.10
2019-01-21T03:47:09.174Z,-5.30
2019-01-21T03:49:55.381Z,-5.40
2019-01-21T03:52:50.811Z,-5.50
2019-01-21T03:55:20.823Z,-5.30
2019-01-21T03:58:50.445Z,-5.40
2019-01-21T04:01:42.412Z,-5.30
2019-01-21T04:04:35.410Z,-5.40
2019-01-21T04:07:49.941Z,-5.60
2019-01-21T04:11:02.671Z,-5.60
2019-01-21T04:14:08.513Z,-5.90
2019-01-21T04:17:14.993Z,-5.70
2019-01-21T04:20:00.297Z,-5.50
2019-01-21T04:22:50.516Z,-5.50
2019-01-21T04:26:03.613Z,-5.60
2019-01-21T04:28:45.384Z,-5.70
2019-01-21T04:31:46.777Z,-5.50
2019-01-21T04:34:58.604Z,-5.50
2019-01-21T04:38:02.662Z,-5.30
2019-01-21T04:41:06.339Z,-5.20
2019-01-21T04:44:00.825Z,-5.20
2019-01-21T04:46:52.551Z,-5.20
2019-01-21T04:50:16.464Z,-5.10
2019-01-21T04:53:12.235Z,-5.10
2019-01-21T04:56:32.389Z,-5.20
2019-01-21T04:59:49.403Z,-5.20
2019-01-21T05:02:58.195Z,-5.20
2019-01-21T05:05:49.036Z,-5.30
2019-01-21T05:09:06.898Z,-5.40
2019-01-21T05:12:04.543Z,-5.40
2019-01-21T05:15:19.782Z,-5.80
2019-01-21T05:18:41.330Z,-6.00
2019-01-21T05:21:47.773Z,-5.60
2019-01-21T05:24:51.843Z,-5.60
2019-01-21T05:27:55.150Z,-5.70
2019-01-21T05:31:06.333Z,-5.60
2019-01-21T05:34:00.445Z,-5.50
2019-01-21T05:37:08.360Z,-5.30
2019-01-21T05:40:00.409Z,-5.40
2019-01-21T05:42:53.845Z,-5.40
2019-01-21T05:46:14.627Z,-5.50
2019-01-21T05:49:14.869Z,-5.50
2019-01-21T05:52:37.985Z,-5.40
2019-01-21T05:55:50.191Z,-5.40
2019-01-21T05:58:45.894Z,-5.40
2019-01-21T06:01:51.159Z,-5.40
2019-01-21T06:04:32.936Z,-5.80
2019-01-21T06:07:50.814Z,-5.80
2019-01-21T06:10:42.754Z,-5.60
2019-01-21T06:13:49.877Z,-5.60
2019-01-21T06:16:50.682Z,-5.40
2019-01-21T06:19:57.449Z,-5.70
2019-01-21T06:23:16.602Z,-5.60
2019-01-21T06:26:39.863Z,-5.20
2019-01-21T06:29:38.755Z,-5.30
2019-01-21T06:32:32.709Z,-5.30
2019-01-21T06:35:16.616Z,-5.10
2019-01-21T06:38:11.448Z,-5.10
2019-01-21T06:41:44.124Z,-5.10
2019-01-21T06:44:56.833Z,-5.20
2019-01-21T06:47:58.783Z,-5.10
2019-01-21T06:51:05.920Z,-5.10
2019-01-21T06:54:11.731Z,-5.10
2019-01-21T06:57:21.505Z,-5.50
2019-01-21T07:00:27.163Z,-5.30
2019-01-21T07:03:33.524Z,-5.20
2019-01-21T07:06:58.420Z,-5.20
2019-01-21T07:10:18.869Z,-5.10
2019-01-21T07:13:28.996Z,-5.20
2019-01-21T07:16:29.220Z,-5.30
2019-01-21T07:19:40.281Z,-5.30
2019-01-21T07:22:43.294Z,-5.40
2019-01-21T07:25:45.123Z,-5.40
2019-01-21T07:29:05.269Z,-5.20
2019-01-21T07:32:18.977Z,-5.20
2019-01-21T07:35:18.696Z,-5.20
2019-01-21T07:38:00.527Z,-5.30
2019-01-21T07:41:27.347Z,-5.30
2019-01-21T07:44:24.557Z,-4.90
2019-01-21T07:47:28.752Z,-4.50
2019-01-21T07:50:31.694Z,-4.10
2019-01-21T07:53:37.896Z,-3.70
2019-01-21T07:57:03.953Z,-2.80
2019-01-21T08:00:05.418Z,-2.70
2019-01-21T08:03:07.953Z,-2.40
2019-01-21T08:06:04.396Z,-2.20
2019-01-21T08:09:32.399Z,-1.60
2019-01-21T08:12:40.883Z,-0.80
2019-01-21T08:15:42.636Z,-0.50
2019-01-21T08:18:58.370Z,-0.10
2019-01-21T08:21:49.499Z,0.00
2019-01-21T08:24:44.136Z,0.50
2019-01-21T08:27:47.058Z,0.90
2019-01-21T08:30:54.527Z,0.70
2019-01-21T08:33:59.967Z,1.30
2019-01-21T08:36:49.928Z,1.70
2019-01-21T08:40:05.252Z,1.40
2019-01-21T08:42:49.086Z,0.40
2019-01-21T08:46:03.344Z,1.50
2019-01-21T08:49:18.378Z,1.40
2019-01-21T08:52:12.611Z,1.30
2019-01-21T08:55:32.970Z,1.30
2019-01-21T08:58:39.160Z,0.70
2019-01-21T09:01:45.807Z,1.40
2019-01-21T09:05:01.816Z,1.70
2019-01-21T09:07:55.355Z,1.80
2019-01-21T09:11:10.972Z,1.00
2019-01-21T09:13:54.925Z,0.10
2019-01-21T09:16:59.326Z,-0.10
2019-01-21T09:20:16.247Z,0.70
2019-01-21T09:23:03.312Z,1.30
2019-01-21T09:25:55.363Z,1.30
2019-01-21T09:28:52.122Z,1.80
2019-01-21T09:31:37.755Z,1.10
2019-01-21T09:34:49.649Z,1.50
2019-01-21T09:38:04.415Z,2.20
2019-01-21T09:41:22.247Z,2.90
2019-01-21T09:43:58.230Z,3.30
2019-01-21T09:46:55.931Z,2.90
2019-01-21T09:49:24.563Z,1.80
2019-01-21T09:52:05.745Z,0.80
2019-01-21T09:54:39.889Z,0.80
2019-01-21T09:57:21.424Z,0.90
2019-01-21T09:59:56.835Z,1.20
2019-01-21T10:02:50.461Z,1.30
2019-01-21T10:05:20.533Z,0.70
2019-01-21T10:08:21.439Z,0.10
2019-01-21T10:11:32.808Z,-0.30
2019-01-21T10:14:30.122Z,-0.40
2019-01-21T10:17:12.966Z,-0.40
2019-01-21T10:20:15.914Z,-0.80
2019-01-21T10:23:48.625Z,-1.00
2019-01-21T10:27:05.054Z,-1.20
2019-01-21T10:30:05.340Z,-1.40
2019-01-21T10:33:08.224Z,-1.70
2019-01-21T10:36:18.470Z,-1.80
2019-01-21T10:39:13.449Z,-1.70
2019-01-21T10:42:14.937Z,-1.70
2019-01-21T10:45:23.172Z,-1.80
2019-01-21T10:48:21.243Z,-2.00
2019-01-21T10:51:27.049Z,-2.00
2019-01-21T10:54:16.520Z,-2.00
2019-01-21T10:57:08.311Z,-1.90
2019-01-21T11:00:15.918Z,-1.80
2019-01-21T11:03:11.136Z,-1.60
2019-01-21T11:06:34.835Z,-1.60
2019-01-21T11:09:48.444Z,-1.60
2019-01-21T11:13:15.601Z,-1.60
2019-01-21T11:16:03.311Z,-1.50
2019-01-21T11:19:09.197Z,-1.30
2019-01-21T11:22:10.473Z,-1.20
2019-01-21T11:25:02.643Z,-1.10
2019-01-21T11:27:49.577Z,-1.20
2019-01-21T11:30:44.526Z,-1.10
2019-01-21T11:33:57.816Z,-1.00
2019-01-21T11:37:09.401Z,-0.90
2019-01-21T11:40:10.335Z,-1.10
2019-01-21T11:43:16.607Z,-1.10
2019-01-21T11:46:13.260Z,-1.10
2019-01-21T11:49:18.623Z,-1.10
2019-01-21T11:52:20.838Z,-1.30
2019-01-21T11:55:28.231Z,-1.30
2019-01-21T11:58:42.687Z,-0.80
2019-01-21T12:01:49.355Z,-0.80
2019-01-21T12:04:38.469Z,-0.90
2019-01-21T12:07:36.734Z,-1.00
2019-01-21T12:10:34.103Z,-0.90
2019-01-21T12:14:00.706Z,-0.90
2019-01-21T12:17:15.617Z,-0.90
2019-01-21T12:20:17.033Z,-0.70
2019-01-21T12:23:11.260Z,-0.80
2019-01-21T12:25:47.474Z,-0.80
2019-01-21T12:28:51.781Z,-0.60
2019-01-21T12:31:48.395Z,-0.60
2019-01-21T12:34:44.173Z,-0.40
2019-01-21T12:37:30.952Z,-0.40
2019-01-21T12:40:57.299Z,-0.30
2019-01-21T12:44:17.647Z,-0.10
2019-01-21T12:46:57.164Z,-0.10
2019-01-21T12:50:13.457Z,-0.60
2019-01-21T12:53:24.378Z,-0.80
2019-01-21T12:56:46.178Z,-0.70
2019-01-21T12:59:44.753Z,-0.30
2019-01-21T13:02:34.525Z,-0.20
2019-01-21T13:05:19.818Z,-0.20
2019-01-21T13:08:15.633Z,0.10
2019-01-21T13:11:20.833Z,0.00
2019-01-21T13:14:14.132Z,-0.10
2019-01-21T13:16:58.072Z,-0.60
2019-01-21T13:19:53.127Z,-0.20
2019-01-21T13:23:00.680Z,0.00
2019-01-21T13:25:57.444Z,-0.30
2019-01-21T13:29:05.318Z,-0.40
2019-01-21T13:32:19.499Z,-0.40
2019-01-21T13:35:29.657Z,-0.80
2019-01-21T13:38:13.940Z,-0.30
2019-01-21T13:41:36.548Z,0.00
2019-01-21T13:45:03.105Z,0.00
2019-01-21T13:48:19.659Z,0.10
2019-01-21T13:51:19.699Z,0.20
2019-01-21T13:54:33.899Z,-0.10
2019-01-21T13:57:15.237Z,-0.30
2019-01-21T14:00:11.229Z,-0.60
2019-01-21T14:03:27.886Z,-0.40
2019-01-21T14:06:45.568Z,-0.50
2019-01-21T14:09:50.490Z,0.00
2019-01-21T14:12:50.224Z,-0.40
2019-01-21T14:15:58.364Z,-0.70
2019-01-21T14:19:18.911Z,-0.50
2019-01-21T14:22:25.492Z,-0.50
2019-01-21T14:25:45.207Z,-0.10
2019-01-21T14:29:03.668Z,-0.50
2019-01-21T14:32:11.311Z,-0.10
2019-01-21T14:35:30.749Z,-0.50
2019-01-21T14:38:21.327Z,-0.70
2019-01-21T14:41:57.276Z,-0.80
2019-01-21T14:45:02.156Z,-0.70
2019-01-21T14:48:18.425Z,-0.80
2019-01-21T14:51:31.447Z,-0.60
2019-01-21T14:54:55.621Z,-0.40
2019-01-21T14:58:12.791Z,-0.70
2019-01-21T15:01:04.088Z,-0.30
2019-01-21T15:03:46.335Z,-0.40
2019-01-21T15:10:15.000Z,-0.90
2019-01-21T15:13:13.220Z,-1.10
2019-01-21T15:16:30.964Z,-0.80
2019-01-21T15:19:11.449Z,-1.00
2019-01-21T15:22:23.692Z,-1.30
2019-01-21T15:25:38.226Z,-1.30
2019-01-21T15:29:00.072Z,-1.30
2019-01-21T15:31:47.276Z,-1.40
2019-01-21T15:34:47.695Z,-1.50
2019-01-21T15:37:48.122Z,-1.60
2019-01-21T15:40:57.653Z,-1.60
2019-01-21T15:43:37.763Z,-1.60
2019-01-21T15:46:47.170Z,-1.60
2019-01-21T15:49:51.059Z,-1.90
2019-01-21T15:52:36.803Z,-2.00
2019-01-21T15:55:41.383Z,-2.20
2019-01-21T15:58:32.099Z,-2.10
2019-01-21T16:01:38.326Z,-2.10
2019-01-21T16:04:24.712Z,-2.10
2019-01-21T16:07:14.080Z,-2.00
2019-01-21T16:10:06.585Z,-1.90
2019-01-21T16:13:17.328Z,-1.90
2019-01-21T16:16:49.917Z,-2.00
2019-01-21T16:19:23.033Z,-2.20
2019-01-21T16:22:36.219Z,-2.20
2019-01-21T16:25:33.579Z,-2.20
2019-01-21T16:28:27.933Z,-2.10
2019-01-21T16:31:26.059Z,-2.10
2019-01-21T16:34:35.897Z,-2.10
2019-01-21T16:37:37.461Z,-2.20
2019-01-21T16:40:36.128Z,-2.10
2019-01-21T16:43:06.008Z,-2.10
2019-01-21T16:45:35.968Z,-2.20
2019-01-21T16:48:05.877Z,-2.20
2019-01-21T16:50:35.873Z,-2.50
2019-01-21T16:53:05.890Z,-2.60
2019-01-21T16:55:35.838Z,-2.50
2019-01-21T16:58:05.756Z,-2.70
2019-01-21T17:00:35.712Z,-2.70
2019-01-21T17:03:05.723Z,-2.70
2019-01-21T17:05:35.758Z,-2.50
2019-01-21T17:08:05.797Z,-2.40
2019-01-21T17:10:39.333Z,-2.40
2019-01-21T17:13:07.447Z,-2.70
2019-01-21T17:15:37.340Z,-2.70
2019-01-21T17:18:07.255Z,-2.70
2019-01-21T17:20:37.149Z,-2.60
2019-01-21T17:23:07.138Z,-2.50
2019-01-21T17:25:37.254Z,-2.70
2019-01-21T17:28:07.307Z,-2.50
2019-01-21T17:30:37.177Z,-2.50
2019-01-21T17:33:07.119Z,-2.50
2019-01-21T17:35:37.078Z,-2.60
2019-01-21T17:38:06.984Z,-2.80
2019-01-21T17:40:36.866Z,-2.80
2019-01-21T17:43:06.815Z,-2.70
2019-01-21T17:45:36.875Z,-2.70
2019-01-21T17:48:06.815Z,-2.90
2019-01-21T17:50:36.806Z,-3.10
2019-01-21T17:53:06.959Z,-3.20
2019-01-21T17:55:37.119Z,-3.30
2019-01-21T17:58:07.183Z,-3.20
2019-01-21T18:00:37.287Z,-3.10
2019-01-21T18:03:07.772Z,-3.00
2019-01-21T18:05:37.684Z,-3.00
2019-01-21T18:08:07.723Z,-3.30
2019-01-21T18:10:37.752Z,-3.10
2019-01-21T18:13:07.584Z,-3.40
2019-01-21T18:15:37.652Z,-3.40
2019-01-21T18:18:07.639Z,-3.50
2019-01-21T18:20:37.527Z,-3.50
2019-01-21T18:23:07.366Z,-3.40
2019-01-21T18:25:37.324Z,-3.50
2019-01-21T18:28:07.224Z,-3.50
2019-01-21T18:30:37.194Z,-3.70
2019-01-21T18:33:07.085Z,-3.90
2019-01-21T18:35:36.989Z,-4.40
2019-01-21T18:38:06.915Z,-4.10
2019-01-21T18:40:36.960Z,-3.90
2019-01-21T18:43:06.905Z,-3.90
2019-01-21T18:45:36.856Z,-3.80
2019-01-21T18:48:06.704Z,-3.80
2019-01-21T18:50:36.590Z,-3.70
2019-01-21T18:53:06.534Z,-3.40
2019-01-21T18:55:36.476Z,-3.30
2019-01-21T18:58:07.058Z,-3.50
2019-01-21T19:00:37.126Z,-3.50
2019-01-21T19:03:07.167Z,-3.60
2019-01-21T19:05:37.257Z,-3.80
2019-01-21T19:08:07.232Z,-3.90
2019-01-21T19:10:37.172Z,-3.70
2019-01-21T19:13:07.143Z,-3.80
2019-01-21T19:15:37.071Z,-3.80
2019-01-21T19:18:07.280Z,-3.80
2019-01-21T19:20:37.235Z,-3.70
2019-01-21T19:23:07.178Z,-3.80
2019-01-21T19:25:37.075Z,-3.80
2019-01-21T19:28:06.982Z,-3.80
2019-01-21T19:30:37.053Z,-3.90
2019-01-21T19:33:06.925Z,-3.80
2019-01-21T19:35:38.352Z,-3.80
2019-01-21T19:38:08.376Z,-3.80
2019-01-21T19:40:38.388Z,-3.70
2019-01-21T19:43:08.439Z,-3.80
2019-01-21T19:45:38.515Z,-3.70
2019-01-21T19:48:08.532Z,-3.80
2019-01-21T19:50:38.540Z,-3.80
2019-01-21T19:53:08.531Z,-4.10
2019-01-21T19:55:40.747Z,-4.00
2019-01-21T19:58:12.146Z,-4.10
2019-01-21T20:00:42.235Z,-4.10
2019-01-21T20:03:12.294Z,-4.00
2019-01-21T20:05:42.520Z,-4.00
2019-01-21T20:08:12.773Z,-3.90
2019-01-21T20:10:42.922Z,-3.80
2019-01-21T20:13:12.866Z,-4.00
2019-01-21T20:15:42.903Z,-4.30
2019-01-21T20:18:12.814Z,-4.20
2019-01-21T20:20:43.083Z,-4.30
2019-01-21T20:23:13.055Z,-4.20
2019-01-21T20:25:43.040Z,-4.10
2019-01-21T20:28:13.006Z,-4.00
2019-01-21T20:30:43.131Z,-4.10
2019-01-21T20:33:13.032Z,-3.90
2019-01-21T20:35:43.036Z,-3.90
2019-01-21T20:38:13.108Z,-3.90
2019-01-21T20:40:43.133Z,-4.10
2019-01-21T20:43:13.077Z,-4.00
2019-01-21T20:45:43.263Z,-4.10
2019-01-21T20:48:13.111Z,-4.20
2019-01-21T20:50:43.384Z,-4.00
2019-01-21T20:53:13.361Z,-4.10
2019-01-21T20:55:43.405Z,-4.20
2019-01-21T20:58:13.452Z,-3.90
2019-01-21T21:00:43.833Z,-4.00
2019-01-21T21:03:13.855Z,-4.10
2019-01-21T21:05:43.834Z,-4.30
2019-01-21T21:08:13.718Z,-4.20
2019-01-21T21:10:43.719Z,-4.10
2019-01-21T21:13:13.687Z,-4.00
2019-01-21T21:15:43.656Z,-4.00
2019-01-21T21:18:13.608Z,-4.10
2019-01-21T21:20:43.509Z,-4.10
2019-01-21T21:23:13.456Z,-4.10
2019-01-21T21:25:43.475Z,-4.10
2019-01-21T21:28:13.580Z,-4.00
2019-01-21T21:30:43.501Z,-3.90
2019-01-21T21:33:13.553Z,-3.80
2019-01-21T21:35:43.520Z,-3.70
2019-01-21T21:38:13.477Z,-3.90
2019-01-21T21:40:43.347Z,-3.80
2019-01-21T21:43:13.313Z,-3.60
2019-01-21T21:45:43.264Z,-3.70
2019-01-21T21:48:13.332Z,-3.70
2019-01-21T21:50:43.183Z,-3.70
2019-01-21T21:53:13.044Z,-3.50
2019-01-21T21:55:42.928Z,-3.40
2019-01-21T21:58:12.879Z,-3.30
2019-01-21T22:00:42.877Z,-3.30
2019-01-21T22:03:13.021Z,-3.30
2019-01-21T22:05:42.925Z,-2.90
2019-01-21T22:08:12.976Z,-2.90
2019-01-21T22:10:42.871Z,-2.70
2019-01-21T22:13:12.855Z,-2.70
2019-01-21T22:15:42.937Z,-2.70
2019-01-21T22:18:12.857Z,-2.50
2019-01-21T22:20:42.832Z,-2.40
2019-01-21T22:23:12.887Z,-2.40
2019-01-21T22:25:42.844Z,-2.50
2019-01-21T22:28:12.835Z,-2.40
2019-01-21T22:30:42.675Z,-2.10
2019-01-21T22:33:12.659Z,-2.10
2019-01-21T22:35:42.530Z,-2.20
2019-01-21T22:38:12.482Z,-2.20
2019-01-21T22:40:42.450Z,-2.30
2019-01-21T22:43:12.324Z,-2.30
2019-01-21T22:45:42.580Z,-2.30
2019-01-21T22:48:12.633Z,-2.30
2019-01-21T22:50:42.649Z,-2.30
2019-01-21T22:53:12.653Z,-2.20
2019-01-21T22:55:42.716Z,-2.20
2019-01-21T22:58:12.883Z,-2.30
2019-01-21T23:01:06.859Z,-2.30
2019-01-21T23:03:36.924Z,-2.30
2019-01-21T23:06:07.186Z,-2.30
2019-01-21T23:08:37.228Z,-2.20
2019-01-21T23:11:07.167Z,-2.30
2019-01-21T23:13:37.187Z,-2.10
2019-01-21T23:16:07.150Z,-2.10
2019-01-21T23:18:37.809Z,-2.10
2019-01-21T23:21:07.738Z,-2.00
2019-01-21T23:23:37.618Z,-2.00
2019-01-21T23:26:07.536Z,-2.10
2019-01-21T23:28:37.509Z,-2.10
2019-01-21T23:31:07.676Z,-2.10
2019-01-21T23:33:37.777Z,-2.10
2019-01-21T23:36:07.825Z,-2.10
2019-01-21T23:38:37.746Z,-2.10
2019-01-21T23:41:07.648Z,-2.40
2019-01-21T23:43:37.835Z,-2.50
2019-01-21T23:46:07.893Z,-2.20
2019-01-21T23:48:37.766Z,-2.10
2019-01-21T23:51:07.755Z,-2.10
2019-01-21T23:53:37.797Z,-2.20
2019-01-21T23:56:08.095Z,-2.10
2019-01-21T23:58:38.043Z,-2.10
